PAMR/MRI METAR and TAF weather

Enter ICAO airport designator
Station Type Date Time Source
PAMR METAR 2020/01/23 20:53 UTC NOAA

PAMR 232053Z 00000KT 10SM CLR M16/M19 A2950 RMK AO2 SLP995 T11561189 58002 $


Station Type Date Time Source
PAMR Decoded METAR 2020/01/23 20:53 UTC NOAA

ANCHORAGE MERRILL FIELD, AK, United States (PAMR) 61-13N 149-51W
Jan 23, 2020 - 03:53 PM EST / 2020.01.23 2053 UTC
Wind: Calm:0
Visibility: 10 mile(s):0
Sky conditions: clear
Temperature: 3.9 F (-15.6 C)
Dew Point: -2.0 F (-18.9 C)
Relative Humidity: 75%
Pressure (altimeter): 29.5 in. Hg (998 hPa)
Pressure tendency: 0.01 inches (0.2 hPa) lower than three hours ago
ob: PAMR 232053Z 00000KT 10SM CLR M16/M19 A2950 RMK AO2 SLP995 T11561189 58002
cycle: 21

Station Type Date Time Source
PAMR TAF UTC NOAA

Error!

Example: see airport list